Thunder radar more information blitzortung!


Radar de pluja more information rain snow radar


Visita la nostra xarxa de llocs de meteo:

Template documentation
and downloads

And another site



No particular awareness of the weather is required.    There are no Weather-warnings

Pagina Historial Weather Underground text

Diari Resum Juny 9, 2016 Unitats:  Mètric    Imperial   Tant
« Previous Dia
SegĂźent Dia »
Diari Setmana Mensual Anual Personalitzada
  Maxima: Minima: Media:
Temperatura: 32.6 °C 16.1 °C 25.8 °C
Punt de rosada: 15.8 °C 9.0 °C 11.7 °C
Humitat: 77 % 28 % 44 %
Wind Speed: 18.5 km/h 0.0 km/h 7.5 km/h
RĂ fegues de vent: 18.5 km/h - -
Vent:- - South
Pression baro: 1015.8 hPa 1009.0 hPa -
Precipitacions: 0.0 mm    
Historical Graphs
 
 
Dades de taula per Juny 9, 2016
Temps Temperatura Punt de rosada Pression baro Vent Wind Speed RĂ fegues de vent Humitat Rainfall Rate (Hourly)
00:00 20.9 °C 12.8 °C 1015.8 hPa SW 3.2 km/h 4.8 km/h 60 % 0.0 mm
00:05 20.8 °C 12.7 °C 1015.8 hPa SW 3.2 km/h 4.8 km/h 60 % 0.0 mm
00:15 16.8 °C 11.9 °C 1014.8 hPa Calm     73 % 0.0 mm
00:25 16.6 °C 11.9 °C 1014.8 hPa Calm     74 % 0.0 mm
00:35 16.4 °C 11.9 °C 1015.8 hPa Calm     75 % 0.0 mm
00:45 16.2 °C 11.9 °C 1015.8 hPa Calm     76 % 0.0 mm
00:55 16.1 °C 12.1 °C 1014.8 hPa Calm     77 % 0.0 mm
01:05 16.2 °C 12.2 °C 1014.8 hPa Calm     77 % 0.0 mm
01:15 16.2 °C 12.2 °C 1014.8 hPa Calm     77 % 0.0 mm
01:25 16.2 °C 12.2 °C 1014.8 hPa Calm     77 % 0.0 mm
01:35 16.2 °C 12.2 °C 1014.8 hPa Calm     77 % 0.0 mm
01:45 16.3 °C 12.1 °C 1014.8 hPa Calm     76 % 0.0 mm
01:55 16.3 °C 12.3 °C 1015.8 hPa Calm     77 % 0.0 mm
02:05 16.3 °C 12.1 °C 1014.8 hPa Calm     76 % 0.0 mm
02:15 16.5 °C 12.4 °C 1014.8 hPa SW 1.6 km/h 1.6 km/h 77 % 0.0 mm
02:25 16.7 °C 12.7 °C 1014.8 hPa SW 1.6 km/h 1.6 km/h 77 % 0.0 mm
02:35 17.3 °C 13.0 °C 1014.8 hPa SSW 1.6 km/h 1.6 km/h 76 % 0.0 mm
02:45 17.9 °C 13.4 °C 1014.8 hPa Calm   1.6 km/h 75 % 0.0 mm
02:55 18.3 °C 13.6 °C 1014.8 hPa South 3.2 km/h 4.8 km/h 74 % 0.0 mm
03:05 19.2 °C 14.1 °C 1014.8 hPa ESE 1.6 km/h 3.2 km/h 72 % 0.0 mm
03:15 19.5 °C 14.1 °C 1014.8 hPa Calm   4.8 km/h 71 % 0.0 mm
03:25 19.1 °C 13.7 °C 1014.8 hPa SW 3.2 km/h 4.8 km/h 71 % 0.0 mm
03:35 19.5 °C 13.9 °C 1014.8 hPa SW 1.6 km/h 3.2 km/h 70 % 0.0 mm
03:45 20.6 °C 14.5 °C 1014.8 hPa SSW 1.6 km/h 4.8 km/h 68 % 0.0 mm
03:55 21.5 °C 15.1 °C 1014.8 hPa East 1.6 km/h 4.8 km/h 67 % 0.0 mm
04:05 22.1 °C 15.2 °C 1014.8 hPa Calm   3.2 km/h 65 % 0.0 mm
04:15 22.4 °C 15.3 °C 1014.8 hPa South 1.6 km/h 3.2 km/h 64 % 0.0 mm
04:25 23.2 °C 15.5 °C 1014.8 hPa South 1.6 km/h 3.2 km/h 62 % 0.0 mm
04:35 23.6 °C 15.6 °C 1014.8 hPa East 1.6 km/h 4.8 km/h 61 % 0.0 mm
04:45 24.0 °C 15.5 °C 1014.8 hPa NNE 1.6 km/h 4.8 km/h 59 % 0.0 mm
04:55 24.6 °C 15.8 °C 1014.8 hPa ENE 1.6 km/h 4.8 km/h 58 % 0.0 mm
05:05 24.8 °C 15.7 °C 1014.8 hPa East 1.6 km/h 4.8 km/h 57 % 0.0 mm
05:15 25.1 °C 14.8 °C 1014.8 hPa ENE 4.8 km/h 6.4 km/h 53 % 0.0 mm
05:25 25.3 °C 14.7 °C 1014.8 hPa NE 8.0 km/h 8.0 km/h 52 % 0.0 mm
05:35 25.6 °C 14.7 °C 1014.8 hPa NE 4.8 km/h 4.8 km/h 51 % 0.0 mm
05:45 26.0 °C 14.8 °C 1014.8 hPa NE 4.8 km/h 11.3 km/h 50 % 0.0 mm
05:55 26.1 °C 14.6 °C 1014.8 hPa ENE 9.7 km/h 9.7 km/h 49 % 0.0 mm
10:56 26.0 °C 14.4 °C 1014.8 hPa ESE 8.7 km/h 8.7 km/h 49 % 0.0 mm
11:01 26.1 °C 14.6 °C 1013.8 hPa ESE 16.7 km/h 16.7 km/h 49 % 0.0 mm
11:06 26.2 °C 14.3 °C 1013.8 hPa ENE 6.4 km/h 6.4 km/h 48 % 0.0 mm
11:11 26.4 °C 14.5 °C 1013.8 hPa ENE 9.3 km/h 9.3 km/h 48 % 0.0 mm
11:16 26.7 °C 14.8 °C 1013.8 hPa ENE 9.3 km/h 10.0 km/h 48 % 0.0 mm
11:21 26.6 °C 14.3 °C 1013.8 hPa ENE 13.0 km/h 13.0 km/h 47 % 0.0 mm
11:26 26.8 °C 14.2 °C 1013.8 hPa ENE 13.0 km/h 13.0 km/h 46 % 0.0 mm
11:31 27.1 °C 13.8 °C 1013.8 hPa ENE 9.3 km/h 9.3 km/h 44 % 0.0 mm
11:36 27.3 °C 14.3 °C 1013.8 hPa ENE 14.8 km/h 14.8 km/h 45 % 0.0 mm
11:46 27.5 °C 13.8 °C 1013.8 hPa North 9.3 km/h 9.3 km/h 43 % 0.0 mm
11:51 27.6 °C 13.9 °C 1013.8 hPa ESE 14.8 km/h 14.8 km/h 43 % 0.0 mm
11:56 27.5 °C 13.8 °C 1013.8 hPa ESE 14.8 km/h 14.8 km/h 43 % 0.0 mm
12:01 27.5 °C 13.4 °C 1013.8 hPa ENE 11.1 km/h 11.1 km/h 42 % 0.0 mm
12:06 27.5 °C 13.4 °C 1013.8 hPa NE 9.3 km/h 9.3 km/h 42 % 0.0 mm
12:11 27.8 °C 13.7 °C 1013.8 hPa ESE 13.0 km/h 13.0 km/h 42 % 0.0 mm
12:16 28.0 °C 13.5 °C 1013.8 hPa NNE 13.0 km/h 13.0 km/h 41 % 0.0 mm
12:21 27.8 °C 13.3 °C 1013.8 hPa ESE 14.8 km/h 14.8 km/h 41 % 0.0 mm
12:26 27.7 °C 13.3 °C 1013.8 hPa SE 11.9 km/h 11.9 km/h 41 % 0.0 mm
12:36 28.0 °C 13.2 °C 1012.8 hPa ENE 13.0 km/h 13.0 km/h 40 % 0.0 mm
12:41 28.2 °C 13.3 °C 1012.8 hPa East 7.4 km/h 7.4 km/h 40 % 0.0 mm
12:46 28.1 °C 13.2 °C 1012.8 hPa NE 5.6 km/h 5.8 km/h 40 % 0.0 mm
12:51 28.2 °C 12.9 °C 1012.8 hPa ENE 9.3 km/h 9.3 km/h 39 % 0.0 mm
12:56 28.1 °C 12.8 °C 1012.8 hPa ENE 7.4 km/h 7.9 km/h 39 % 0.0 mm
13:01 28.4 °C 13.5 °C 1011.7 hPa East 7.4 km/h 7.9 km/h 40 % 0.0 mm
13:06 28.2 °C 12.6 °C 1011.7 hPa ESE 14.8 km/h 14.8 km/h 38 % 0.0 mm
13:11 28.7 °C 13.4 °C 1011.7 hPa ENE 6.4 km/h 6.9 km/h 39 % 0.0 mm
13:21 28.6 °C 13.3 °C 1010.7 hPa ESE 15.8 km/h 15.8 km/h 39 % 0.0 mm
13:31 29.0 °C 12.8 °C 1011.7 hPa SE 12.2 km/h 12.2 km/h 37 % 0.0 mm
13:36 28.6 °C 12.9 °C 1011.7 hPa ENE 14.8 km/h 14.8 km/h 38 % 0.0 mm
13:41 28.7 °C 13.0 °C 1011.7 hPa SW 14.8 km/h 14.8 km/h 38 % 0.0 mm
13:46 29.5 °C 12.8 °C 1011.7 hPa WSW 7.4 km/h 7.4 km/h 36 % 0.0 mm
13:51 29.7 °C 12.6 °C 1011.7 hPa WSW 12.2 km/h 12.2 km/h 35 % 0.0 mm
13:56 29.6 °C 12.1 °C 1011.7 hPa WSW 11.1 km/h 11.1 km/h 34 % 0.0 mm
14:01 29.6 °C 12.1 °C 1011.7 hPa SW 9.3 km/h 9.3 km/h 34 % 0.0 mm
14:06 29.9 °C 12.3 °C 1011.7 hPa WSW 7.4 km/h 7.4 km/h 34 % 0.0 mm
14:11 30.2 °C 12.2 °C 1011.7 hPa SSW 9.3 km/h 9.3 km/h 33 % 0.0 mm
14:16 29.7 °C 11.7 °C 1011.7 hPa WSW 5.6 km/h 5.6 km/h 33 % 0.0 mm
14:21 30.9 °C 12.3 °C 1011.7 hPa SW 14.8 km/h 14.8 km/h 32 % 0.0 mm
14:26 31.4 °C 12.2 °C 1011.7 hPa ESE 9.3 km/h 9.3 km/h 31 % 0.0 mm
14:31 31.2 °C 12.1 °C 1011.7 hPa SW 5.6 km/h 5.6 km/h 31 % 0.0 mm
14:41 31.4 °C 11.7 °C 1011.7 hPa South 9.3 km/h 9.3 km/h 30 % 0.0 mm
14:46 31.9 °C 12.2 °C 1011.7 hPa West 5.6 km/h 5.6 km/h 30 % 0.0 mm
14:51 32.0 °C 12.3 °C 1011.7 hPa South 9.3 km/h 9.3 km/h 30 % 0.0 mm
14:56 31.6 °C 11.9 °C 1011.7 hPa SW 15.1 km/h 15.1 km/h 30 % 0.0 mm
15:01 31.2 °C 11.6 °C 1011.7 hPa SSW 7.4 km/h 7.4 km/h 30 % 0.0 mm
15:06 31.6 °C 11.4 °C 1011.7 hPa WSW 11.9 km/h 11.9 km/h 29 % 0.0 mm
15:11 31.9 °C 12.2 °C 1011.7 hPa NW 5.6 km/h 5.6 km/h 30 % 0.0 mm
15:16 32.3 °C 12.0 °C 1010.7 hPa SW 9.3 km/h 9.3 km/h 29 % 0.0 mm
15:22 32.5 °C 12.2 °C 1010.7 hPa WSW 9.3 km/h 9.3 km/h 29 % 0.0 mm
15:27 32.3 °C 11.4 °C 1010.7 hPa SW 11.1 km/h 11.1 km/h 28 % 0.0 mm
15:32 32.4 °C 12.1 °C 1010.0 hPa NNW 7.4 km/h 7.4 km/h 29 % 0.0 mm
15:37 32.1 °C 11.3 °C 1010.0 hPa SSW 11.1 km/h 11.1 km/h 28 % 0.0 mm
15:42 31.4 °C 11.2 °C 1010.0 hPa WSW 3.7 km/h 3.7 km/h 29 % 0.0 mm
15:47 31.6 °C 11.4 °C 1010.0 hPa SW 5.6 km/h 5.6 km/h 29 % 0.0 mm
15:52 31.8 °C 11.6 °C 1010.0 hPa SSW 7.4 km/h 7.4 km/h 29 % 0.0 mm
15:57 32.4 °C 12.1 °C 1010.0 hPa WSW 5.6 km/h 5.6 km/h 29 % 0.0 mm
16:02 32.6 °C 11.7 °C 1010.0 hPa WSW 9.3 km/h 9.3 km/h 28 % 0.0 mm
16:07 31.7 °C 11.5 °C 1010.0 hPa WSW 14.8 km/h 14.8 km/h 29 % 0.0 mm
16:22 31.0 °C 10.9 °C 1010.7 hPa SSW 5.8 km/h 5.8 km/h 29 % 0.0 mm
16:27 30.7 °C 10.6 °C 1010.7 hPa West 14.8 km/h 14.8 km/h 29 % 0.0 mm
16:32 31.0 °C 10.9 °C 1009.0 hPa South 14.8 km/h 14.8 km/h 29 % 0.0 mm
16:37 30.8 °C 10.7 °C 1009.0 hPa SSE 7.4 km/h 7.4 km/h 29 % 0.0 mm
16:42 31.3 °C 11.1 °C 1009.0 hPa SSE 9.3 km/h 9.3 km/h 29 % 0.0 mm
16:47 30.8 °C 10.7 °C 1010.0 hPa SSE 5.6 km/h 6.1 km/h 29 % 0.0 mm
16:52 30.8 °C 10.7 °C 1010.0 hPa WSW 9.3 km/h 9.3 km/h 29 % 0.0 mm
17:02 31.3 °C 11.1 °C 1010.0 hPa SW 7.4 km/h 7.4 km/h 29 % 0.0 mm
17:07 31.1 °C 10.9 °C 1010.0 hPa WSW 10.0 km/h 10.0 km/h 29 % 0.0 mm
17:12 31.1 °C 10.9 °C 1010.0 hPa ESE 7.4 km/h 7.4 km/h 29 % 0.0 mm
17:17 31.5 °C 11.3 °C 1010.0 hPa SSE 9.7 km/h 9.7 km/h 29 % 0.0 mm
17:22 31.6 °C 11.4 °C 1010.0 hPa SW 5.6 km/h 5.6 km/h 29 % 0.0 mm
17:27 31.1 °C 10.9 °C 1010.0 hPa ESE 18.0 km/h 18.0 km/h 29 % 0.0 mm
17:32 31.4 °C 11.2 °C 1010.0 hPa South 14.8 km/h 14.8 km/h 29 % 0.0 mm
17:37 31.7 °C 11.5 °C 1010.0 hPa SW 10.0 km/h 10.0 km/h 29 % 0.0 mm
17:42 31.2 °C 10.5 °C 1010.0 hPa WSW 9.3 km/h 9.3 km/h 28 % 0.0 mm
17:47 31.2 °C 11.1 °C 1010.0 hPa SSW 3.7 km/h 3.7 km/h 29 % 0.0 mm
17:52 30.7 °C 10.1 °C 1010.0 hPa SSW 11.1 km/h 11.1 km/h 28 % 0.0 mm
17:57 30.3 °C 9.8 °C 1010.0 hPa SSW 13.0 km/h 13.0 km/h 28 % 0.0 mm
18:02 30.3 °C 9.8 °C 1010.0 hPa SSW 9.3 km/h 9.3 km/h 28 % 0.0 mm
18:07 30.1 °C 9.6 °C 1010.0 hPa SSW 9.0 km/h 9.0 km/h 28 % 0.0 mm
18:12 29.9 °C 9.9 °C 1010.0 hPa SW 17.5 km/h 17.5 km/h 29 % 0.0 mm
18:18 29.5 °C 9.6 °C 1009.0 hPa WNW 13.0 km/h 13.0 km/h 29 % 0.0 mm
18:23 29.9 °C 9.9 °C 1009.0 hPa SW 13.0 km/h 13.0 km/h 29 % 0.0 mm
18:28 29.5 °C 9.6 °C 1009.0 hPa SW 11.1 km/h 11.1 km/h 29 % 0.0 mm
18:33 29.2 °C 9.3 °C 1010.0 hPa SW 7.4 km/h 7.4 km/h 29 % 0.0 mm
18:38 29.2 °C 9.3 °C 1010.0 hPa WSW 16.1 km/h 16.1 km/h 29 % 0.0 mm
18:43 28.8 °C 9.5 °C 1010.0 hPa South 16.1 km/h 16.1 km/h 30 % 0.0 mm
18:48 28.8 °C 9.5 °C 1010.0 hPa SW 16.9 km/h 16.9 km/h 30 % 0.0 mm
18:53 28.7 °C 9.4 °C 1010.0 hPa SSW 11.1 km/h 11.1 km/h 30 % 0.0 mm
18:58 28.2 °C 9.0 °C 1010.0 hPa SSW 12.2 km/h 12.2 km/h 30 % 0.0 mm
19:03 28.2 °C 9.0 °C 1010.0 hPa SW 14.8 km/h 14.8 km/h 30 % 0.0 mm
19:08 28.2 °C 9.0 °C 1010.0 hPa SW 11.1 km/h 11.1 km/h 30 % 0.0 mm
19:10 22.1 °C 10.9 °C 1011.7 hPa ENE 9.7 km/h 9.7 km/h 49 % 0.0 mm
19:13 28.2 °C 9.0 °C 1010.0 hPa WSW 16.7 km/h 16.7 km/h 30 % 0.0 mm
19:18 28.2 °C 9.0 °C 1009.0 hPa WSW 9.3 km/h 10.8 km/h 30 % 0.0 mm
19:20 22.1 °C 10.9 °C 1011.7 hPa ENE 9.7 km/h 9.7 km/h 49 % 0.0 mm
19:23 26.8 °C 9.2 °C 1009.0 hPa SW 15.6 km/h 15.6 km/h 33 % 0.0 mm
19:28 26.5 °C 9.3 °C 1009.0 hPa WSW 14.8 km/h 14.8 km/h 34 % 0.0 mm
19:30 22.2 °C 11.3 °C 1011.7 hPa ENE 9.7 km/h 9.7 km/h 50 % 0.0 mm
19:33 26.4 °C 9.3 °C 1010.0 hPa SSW 18.5 km/h 18.5 km/h 34 % 0.0 mm
19:38 26.1 °C 9.4 °C 1010.0 hPa SW 16.7 km/h 16.7 km/h 35 % 0.0 mm
19:40 22.1 °C 11.2 °C 1011.7 hPa ENE 9.7 km/h 9.7 km/h 50 % 0.0 mm
19:43 26.1 °C 9.4 °C 1010.0 hPa SW 9.7 km/h 9.7 km/h 35 % 0.0 mm
19:48 25.7 °C 9.9 °C 1010.0 hPa SW 7.4 km/h 7.4 km/h 37 % 0.0 mm
19:50 22.1 °C 11.2 °C 1011.7 hPa ENE 9.7 km/h 9.7 km/h 50 % 0.0 mm
19:53 25.7 °C 9.9 °C 1010.0 hPa SSW 10.3 km/h 10.3 km/h 37 % 0.0 mm
19:58 25.5 °C 10.1 °C 1010.0 hPa WSW 13.0 km/h 13.0 km/h 38 % 0.0 mm
20:00 22.1 °C 11.2 °C 1011.7 hPa ENE 9.7 km/h 9.7 km/h 50 % 0.0 mm
20:03 25.4 °C 10.1 °C 1010.0 hPa SW 11.1 km/h 11.1 km/h 38 % 0.0 mm
20:08 25.4 °C 10.1 °C 1010.0 hPa SW 13.7 km/h 13.7 km/h 38 % 0.0 mm
20:10 22.0 °C 11.1 °C 1011.7 hPa ENE 9.7 km/h 9.7 km/h 50 % 0.0 mm
20:13 25.4 °C 10.1 °C 1010.0 hPa SW 11.1 km/h 11.1 km/h 38 % 0.0 mm
20:18 25.4 °C 10.1 °C 1010.0 hPa WSW 8.7 km/h 8.7 km/h 38 % 0.0 mm
20:20 21.9 °C 11.0 °C 1011.7 hPa ENE 9.7 km/h 9.7 km/h 50 % 0.0 mm
20:23 25.4 °C 10.1 °C 1010.0 hPa SW 3.7 km/h 3.7 km/h 38 % 0.0 mm
20:28 25.4 °C 10.1 °C 1010.0 hPa SW 5.6 km/h 5.8 km/h 38 % 0.0 mm
20:30 21.8 °C 10.9 °C 1010.7 hPa ENE 9.7 km/h 9.7 km/h 50 % 0.0 mm
20:33 24.7 °C 10.9 °C 1010.0 hPa WSW 3.7 km/h 4.2 km/h 42 % 0.0 mm
20:38 24.7 °C 10.9 °C 1010.0 hPa SW 5.8 km/h 5.8 km/h 42 % 0.0 mm
20:40 21.6 °C 11.0 °C 1010.7 hPa ENE 9.7 km/h 9.7 km/h 51 % 0.0 mm
20:43 24.7 °C 10.9 °C 1010.0 hPa WSW 5.6 km/h 5.6 km/h 42 % 0.0 mm
20:48 24.7 °C 10.9 °C 1010.0 hPa SW 5.6 km/h 5.6 km/h 42 % 0.0 mm
20:49 24.7 °C 10.9 °C 1010.0 hPa SW 5.6 km/h 5.6 km/h 42 % 0.0 mm
20:50 21.5 °C 10.9 °C 1010.7 hPa East 3.2 km/h 3.2 km/h 51 % 0.0 mm
20:54 24.3 °C 10.6 °C 1010.0 hPa SW 4.7 km/h 6.1 km/h 42 % 0.0 mm
20:59 24.2 °C 10.5 °C 1010.0 hPa SW 4.7 km/h 6.1 km/h 42 % 0.0 mm
21:00 21.3 °C 10.7 °C 1010.7 hPa ESE 3.2 km/h 3.2 km/h 51 % 0.0 mm
21:04 24.2 °C 10.5 °C 1010.0 hPa SW 4.7 km/h 6.1 km/h 42 % 0.0 mm
21:05 21.3 °C 10.7 °C 1010.7 hPa ESE 3.2 km/h 3.2 km/h 51 % 0.0 mm
21:09 24.2 °C 10.5 °C 1010.0 hPa West 10.3 km/h 10.3 km/h 42 % 0.0 mm
21:14 24.2 °C 10.5 °C 1010.0 hPa West 11.1 km/h 11.1 km/h 42 % 0.0 mm
21:15 21.0 °C 10.5 °C 1010.0 hPa ESE 3.2 km/h 3.2 km/h 51 % 0.0 mm
21:19 24.2 °C 10.5 °C 1010.0 hPa West 11.1 km/h 11.1 km/h 42 % 0.0 mm
21:24 24.2 °C 10.5 °C 1010.0 hPa SSW 3.7 km/h 4.2 km/h 42 % 0.0 mm
21:25 20.7 °C 10.5 °C 1010.0 hPa ESE 3.2 km/h 3.2 km/h 52 % 0.0 mm
21:30 24.2 °C 10.5 °C 1010.7 hPa SSW 3.7 km/h 4.2 km/h 42 % 0.0 mm
21:35 24.2 °C 10.5 °C 1010.7 hPa SSW 3.7 km/h 4.2 km/h 42 % 0.0 mm
21:40 24.2 °C 10.5 °C 1010.7 hPa SSW 3.7 km/h 4.2 km/h 42 % 0.0 mm
21:45 24.2 °C 10.5 °C 1010.7 hPa SSW 3.7 km/h 4.2 km/h 42 % 0.0 mm
21:50 24.2 °C 10.5 °C 1010.7 hPa SSW 3.7 km/h 4.2 km/h 42 % 0.0 mm
21:55 24.2 °C 10.5 °C 1010.7 hPa SSW 3.7 km/h 4.2 km/h 42 % 0.0 mm
22:00 24.2 °C 10.5 °C 1010.7 hPa SSW 3.7 km/h 4.2 km/h 42 % 0.0 mm
22:05 24.2 °C 10.5 °C 1010.7 hPa SSW 3.7 km/h 4.2 km/h 42 % 0.0 mm
22:10 24.2 °C 10.5 °C 1010.7 hPa SSW 3.7 km/h 4.2 km/h 42 % 0.0 mm
22:15 24.2 °C 10.5 °C 1011.7 hPa SSW 3.7 km/h 4.2 km/h 42 % 0.0 mm
22:20 24.2 °C 10.5 °C 1011.7 hPa SSW 3.7 km/h 4.2 km/h 42 % 0.0 mm
22:25 24.2 °C 10.5 °C 1011.7 hPa SSW 3.7 km/h 4.2 km/h 42 % 0.0 mm
22:30 24.2 °C 10.5 °C 1011.7 hPa SSW 3.7 km/h 4.2 km/h 42 % 0.0 mm
22:35 22.7 °C 10.5 °C 1011.7 hPa SSW 3.7 km/h 4.2 km/h 46 % 0.0 mm
22:40 22.7 °C 10.5 °C 1011.7 hPa SSW 3.7 km/h 4.2 km/h 46 % 0.0 mm
22:45 22.7 °C 10.5 °C 1012.8 hPa SSW 3.7 km/h 4.2 km/h 46 % 0.0 mm
22:50 22.7 °C 10.5 °C 1012.8 hPa SSW 3.7 km/h 4.2 km/h 46 % 0.0 mm
22:55 22.7 °C 10.5 °C 1012.8 hPa SSW 3.7 km/h 4.2 km/h 46 % 0.0 mm
23:00 22.7 °C 10.5 °C 1012.8 hPa SSW 3.7 km/h 4.2 km/h 46 % 0.0 mm
23:05 20.1 °C 10.8 °C 1009.0 hPa Calm     55 % 0.0 mm
23:10 22.6 °C 10.7 °C 1012.8 hPa WSW 3.9 km/h 3.9 km/h 47 % 0.0 mm
23:15 22.5 °C 10.9 °C 1012.8 hPa WSW 3.9 km/h 3.9 km/h 48 % 0.0 mm
23:25 22.4 °C 10.8 °C 1012.8 hPa WSW 3.9 km/h 3.9 km/h 48 % 0.0 mm
23:30 22.4 °C 10.8 °C 1012.4 hPa WSW 1.6 km/h 3.2 km/h 48 % 0.0 mm
23:35 22.3 °C 10.8 °C 1011.7 hPa WSW 3.9 km/h 3.9 km/h 48 % 0.0 mm
23:45 22.1 °C 10.9 °C 1011.7 hPa WSW 3.9 km/h 3.9 km/h 49 % 0.0 mm
23:50 22.1 °C 10.9 °C 1011.7 hPa WSW 1.6 km/h 3.2 km/h 49 % 0.0 mm
23:55 22.1 °C 10.9 °C 1011.7 hPa WSW 1.6 km/h 3.2 km/h 49 % 0.0 mm
Meteo Sesrovires
Elogis d' Weather Underground - 3.5 mb

Guio original per  Jim McMurry - jmcmurry@mwt.net Adaptat per a la plantilla per  Wim van der Kuil - Leuven-Template.eu

Trobareu la nostra informacio del temps tambe a:

Weather Underground

AWEKAS